createdAt,value
2023-04-09T00:03:11.630Z,100.00
2023-04-09T00:06:26.497Z,100.00
2023-04-09T00:09:35.127Z,100.00
2023-04-09T00:12:43.505Z,100.00
2023-04-09T00:15:52.189Z,100.00
2023-04-09T00:19:07.505Z,100.00
2023-04-09T00:22:22.505Z,100.00
2023-04-09T00:25:31.499Z,100.00
2023-04-09T00:28:53.682Z,100.00
2023-04-09T00:32:02.259Z,100.00
2023-04-09T00:35:11.492Z,100.00
2023-04-09T00:38:20.090Z,100.00
2023-04-09T00:41:34.481Z,100.00
2023-04-09T00:44:36.335Z,100.00
2023-04-09T00:47:51.571Z,100.00
2023-04-09T00:51:06.518Z,100.00
2023-04-09T00:54:22.488Z,100.00
2023-04-09T00:57:24.346Z,100.00
2023-04-09T01:00:40.650Z,100.00
2023-04-09T01:03:49.293Z,100.00
2023-04-09T01:07:41.473Z,100.00
2023-04-09T01:11:09.496Z,100.00
2023-04-09T01:14:23.485Z,100.00
2023-04-09T01:17:44.594Z,100.00
2023-04-09T01:21:01.484Z,100.00
2023-04-09T01:24:31.826Z,100.00
2023-04-09T01:28:04.754Z,100.00
2023-04-09T01:31:23.500Z,100.00
2023-04-09T01:34:39.497Z,100.00
2023-04-09T01:37:48.508Z,100.00
2023-04-09T01:40:59.854Z,100.00
2023-04-09T01:44:10.488Z,100.00
2023-04-09T01:47:26.535Z,100.00
2023-04-09T01:50:38.431Z,100.00
2023-04-09T01:53:55.488Z,100.00
2023-04-09T01:56:57.954Z,100.00
2023-04-09T02:00:14.497Z,100.00
2023-04-09T02:03:53.585Z,100.00
2023-04-09T02:07:42.848Z,100.00
2023-04-09T02:10:57.512Z,100.00
2023-04-09T02:14:14.520Z,100.00
2023-04-09T02:17:23.189Z,100.00
2023-04-09T02:20:31.477Z,100.00
2023-04-09T02:23:40.010Z,100.00
2023-04-09T02:26:48.522Z,100.00
2023-04-09T02:30:04.219Z,100.00
2023-04-09T02:33:20.511Z,100.00
2023-04-09T02:36:28.479Z,100.00
2023-04-09T02:39:37.138Z,100.00
2023-04-09T02:42:46.488Z,100.00
2023-04-09T02:45:55.071Z,100.00
2023-04-09T02:49:09.489Z,100.00
2023-04-09T02:52:24.479Z,100.00
2023-04-09T02:55:39.486Z,100.00
2023-04-09T02:58:48.117Z,100.00
2023-04-09T03:01:56.572Z,100.00
2023-04-09T03:05:05.576Z,100.00
2023-04-09T03:08:14.524Z,100.00
2023-04-09T03:11:29.495Z,100.00
2023-04-09T03:14:44.491Z,100.00
2023-04-09T03:17:46.498Z,100.00
2023-04-09T03:21:01.496Z,100.00
2023-04-09T03:24:16.488Z,100.00
2023-04-09T03:27:24.477Z,100.00
2023-04-09T03:30:33.065Z,100.00
2023-04-09T03:33:41.496Z,100.00
2023-04-09T03:36:56.460Z,100.00
2023-04-09T03:40:05.948Z,100.00
2023-04-09T03:43:14.469Z,100.00
2023-04-09T03:46:29.507Z,100.00
2023-04-09T03:49:31.401Z,100.00
2023-04-09T03:52:46.490Z,100.00
2023-04-09T03:56:01.509Z,100.00
2023-04-09T03:59:03.432Z,100.00
2023-04-09T04:02:18.583Z,100.00
2023-04-09T04:05:30.503Z,100.00
2023-04-09T04:08:45.500Z,100.00
2023-04-09T04:11:54.083Z,100.00
2023-04-09T04:15:02.506Z,100.00
2023-04-09T04:18:11.283Z,100.00
2023-04-09T04:21:23.499Z,100.00
2023-04-09T04:24:38.486Z,100.00
2023-04-09T04:27:50.496Z,100.00
2023-04-09T04:31:19.506Z,100.00
2023-04-09T04:34:28.489Z,100.00
2023-04-09T04:37:37.010Z,100.00
2023-04-09T04:40:51.485Z,100.00
2023-04-09T04:44:06.520Z,100.00
2023-04-09T04:47:08.448Z,100.00
2023-04-09T04:50:23.506Z,100.00
2023-04-09T04:53:25.404Z,100.00
2023-04-09T04:56:40.494Z,100.00
2023-04-09T04:59:42.631Z,100.00
2023-04-09T05:02:57.635Z,100.00
2023-04-09T05:06:12.470Z,100.00
2023-04-09T05:09:22.406Z,100.00
2023-04-09T05:12:38.494Z,100.00
2023-04-09T05:15:47.155Z,100.00
2023-04-09T05:18:55.564Z,100.00
2023-04-09T05:22:10.506Z,100.00
2023-04-09T05:25:18.507Z,100.00
2023-04-09T05:28:40.501Z,100.00
2023-04-09T05:31:42.434Z,100.00
2023-04-09T05:34:57.447Z,100.00
2023-04-09T05:38:12.468Z,100.00
2023-04-09T05:41:14.778Z,100.00
2023-04-09T05:44:36.491Z,100.00
2023-04-09T05:47:51.514Z,100.00
2023-04-09T05:51:01.018Z,100.00
2023-04-09T05:54:17.463Z,100.00
2023-04-09T05:57:26.089Z,100.00
2023-04-09T06:00:34.463Z,100.00
2023-04-09T06:03:50.752Z,100.00
2023-04-09T06:07:05.484Z,100.00
2023-04-09T06:10:14.484Z,100.00
2023-04-09T06:13:23.142Z,100.00
2023-04-09T06:20:28.531Z,100.00
2023-04-09T06:23:37.285Z,100.00
2023-04-09T06:26:52.485Z,100.00
2023-04-09T06:30:08.593Z,100.00
2023-04-09T06:33:23.548Z,100.00
2023-04-09T06:36:39.519Z,100.00
2023-04-09T06:39:44.795Z,100.00
2023-04-09T06:43:08.514Z,100.00
2023-04-09T06:46:23.505Z,100.00
2023-04-09T06:49:32.048Z,100.00
2023-04-09T06:52:40.509Z,100.00
2023-04-09T06:55:49.085Z,100.00
2023-04-09T06:59:03.532Z,100.00
2023-04-09T07:02:12.273Z,100.00
2023-04-09T07:05:20.489Z,100.00
2023-04-09T07:08:29.364Z,100.00
2023-04-09T07:11:44.467Z,100.00
2023-04-09T07:14:59.554Z,100.00
2023-04-09T07:18:08.461Z,100.00
2023-04-09T07:21:23.500Z,100.00
2023-04-09T07:24:32.036Z,100.00
2023-04-09T07:27:40.501Z,100.00
2023-04-09T07:31:02.481Z,100.00
2023-04-09T07:34:17.471Z,100.00
2023-04-09T07:37:19.983Z,100.00
2023-04-09T07:40:34.484Z,100.00
2023-04-09T07:43:36.785Z,100.00
2023-04-09T07:46:51.547Z,100.00
2023-04-09T07:50:06.506Z,100.00
2023-04-09T07:53:15.313Z,100.00
2023-04-09T07:56:30.492Z,100.00
2023-04-09T07:59:39.143Z,99.81
2023-04-09T08:02:47.670Z,95.97
2023-04-09T08:06:02.530Z,95.11
2023-04-09T08:09:11.494Z,95.06
2023-04-09T08:12:20.228Z,93.26
2023-04-09T08:15:35.493Z,90.09
2023-04-09T08:18:43.488Z,90.23
2023-04-09T08:21:52.135Z,91.12
2023-04-09T08:25:06.522Z,89.85
2023-04-09T08:28:08.560Z,89.71
2023-04-09T08:31:30.577Z,89.88
2023-04-09T08:34:39.491Z,89.61
2023-04-09T08:38:02.508Z,89.04
2023-04-09T08:41:12.536Z,88.50
2023-04-09T08:44:22.125Z,88.18
2023-04-09T08:47:30.525Z,90.57
2023-04-09T08:50:39.898Z,87.32
2023-04-09T08:54:06.529Z,88.49
2023-04-09T08:57:08.524Z,87.33
2023-04-09T09:00:24.525Z,88.13
2023-04-09T09:04:00.629Z,89.21
2023-04-09T09:07:06.687Z,86.96
2023-04-09T09:10:21.524Z,88.54
2023-04-09T09:13:27.413Z,89.32
2023-04-09T09:16:45.576Z,87.05
2023-04-09T09:19:54.474Z,86.86
2023-04-09T09:23:12.485Z,88.01
2023-04-09T09:26:30.524Z,87.57
2023-04-09T09:29:41.981Z,88.22
2023-04-09T09:33:16.490Z,87.71
2023-04-09T09:36:41.500Z,87.46
2023-04-09T09:39:43.858Z,90.05
2023-04-09T09:43:05.517Z,88.03
2023-04-09T09:46:22.571Z,87.42
2023-04-09T09:49:24.563Z,87.63
2023-04-09T09:52:39.500Z,88.56
2023-04-09T09:55:59.506Z,89.20
2023-04-09T09:59:15.915Z,90.31
2023-04-09T10:02:31.601Z,88.91
2023-04-09T10:05:41.313Z,89.51
2023-04-09T10:08:52.767Z,89.29
2023-04-09T10:12:01.201Z,87.56
2023-04-09T10:15:11.522Z,86.82
2023-04-09T10:18:26.466Z,86.49
2023-04-09T10:21:42.848Z,87.07
2023-04-09T10:24:57.514Z,87.52
2023-04-09T10:28:00.755Z,85.63
2023-04-09T10:31:15.561Z,85.67
2023-04-09T10:34:33.483Z,82.82
2023-04-09T10:37:55.491Z,84.74
2023-04-09T10:41:04.494Z,85.09
2023-04-09T10:44:31.259Z,83.16
2023-04-09T10:47:41.556Z,82.09
2023-04-09T10:50:57.554Z,81.48
2023-04-09T10:53:59.647Z,81.01
2023-04-09T10:57:14.502Z,83.63
2023-04-09T11:00:23.092Z,82.93
2023-04-09T11:03:45.517Z,82.23
2023-04-09T11:07:01.483Z,82.86
2023-04-09T11:10:10.192Z,83.16
2023-04-09T11:13:26.493Z,81.92
2023-04-09T11:16:35.136Z,83.66
2023-04-09T11:19:43.472Z,83.22
2023-04-09T11:23:00.503Z,82.93
2023-04-09T11:26:02.512Z,84.80
2023-04-09T11:29:24.488Z,84.55
2023-04-09T11:32:31.395Z,84.59
2023-04-09T11:35:46.569Z,84.93
2023-04-09T11:38:49.740Z,83.75
2023-04-09T11:42:04.482Z,84.09
2023-04-09T11:45:08.097Z,82.48
2023-04-09T11:48:23.473Z,81.97
2023-04-09T11:51:38.467Z,80.85
2023-04-09T11:54:56.561Z,80.38
2023-04-09T11:58:06.513Z,79.82
2023-04-09T12:01:22.526Z,78.82
2023-04-09T12:04:31.566Z,78.31
2023-04-09T12:07:55.385Z,79.32
2023-04-09T12:11:14.489Z,78.00
2023-04-09T12:14:29.501Z,75.33
2023-04-09T12:17:44.575Z,75.99
2023-04-09T12:20:59.498Z,74.17
2023-04-09T12:24:08.501Z,74.41
2023-04-09T12:27:17.176Z,74.83
2023-04-09T12:30:39.529Z,71.89
2023-04-09T12:33:47.506Z,73.68
2023-04-09T12:37:02.503Z,74.18
2023-04-09T12:40:11.557Z,71.47
2023-04-09T12:43:20.495Z,71.62
2023-04-09T12:46:35.700Z,72.85
2023-04-09T12:49:37.779Z,73.20
2023-04-09T12:52:53.516Z,71.10
2023-04-09T12:56:08.499Z,71.16
2023-04-09T12:59:10.585Z,69.56
2023-04-09T13:02:27.613Z,66.74
2023-04-09T13:05:42.536Z,66.35
2023-04-09T13:08:57.557Z,66.71
2023-04-09T13:12:06.155Z,70.33
2023-04-09T13:15:20.484Z,70.17
2023-04-09T13:18:28.508Z,70.45
2023-04-09T13:21:37.532Z,66.98
2023-04-09T13:24:52.504Z,66.48
2023-04-09T13:28:01.146Z,67.86
2023-04-09T13:31:22.582Z,69.13
2023-04-09T13:34:25.165Z,69.63
2023-04-09T13:37:39.505Z,70.61
2023-04-09T13:40:48.508Z,70.73
2023-04-09T13:44:03.526Z,69.98
2023-04-09T13:47:12.510Z,69.28
2023-04-09T13:50:27.517Z,69.24
2023-04-09T13:53:42.493Z,68.05
2023-04-09T13:56:51.498Z,65.40
2023-04-09T14:00:00.245Z,64.77
2023-04-09T14:03:09.751Z,65.48
2023-04-09T14:06:18.120Z,67.22
2023-04-09T14:09:32.512Z,68.07
2023-04-09T14:12:41.510Z,68.93
2023-04-09T14:15:57.984Z,66.47
2023-04-09T14:19:14.500Z,63.42
2023-04-09T14:22:23.138Z,62.64
2023-04-09T14:25:31.528Z,62.45
2023-04-09T14:28:53.719Z,61.91
2023-04-09T14:32:08.529Z,61.76
2023-04-09T14:35:23.504Z,61.81
2023-04-09T14:38:32.496Z,62.38
2023-04-09T14:41:47.494Z,63.11
2023-04-09T14:44:55.504Z,63.07
2023-04-09T14:48:10.482Z,62.47
2023-04-09T14:51:25.499Z,62.83
2023-04-09T14:54:34.238Z,63.21
2023-04-09T14:57:49.505Z,63.75
2023-04-09T15:01:04.526Z,64.35
2023-04-09T15:04:13.397Z,65.15
2023-04-09T15:07:24.964Z,65.34
2023-04-09T15:10:39.511Z,67.11
2023-04-09T15:13:55.512Z,66.20
2023-04-09T15:17:04.129Z,65.85
2023-04-09T15:20:13.521Z,64.95
2023-04-09T15:23:22.348Z,65.64
2023-04-09T15:26:37.488Z,66.64
2023-04-09T15:29:46.088Z,66.70
2023-04-09T15:33:00.583Z,66.83
2023-04-09T15:36:15.520Z,67.12
2023-04-09T15:39:24.492Z,66.41
2023-04-09T15:42:39.491Z,68.84
2023-04-09T15:45:54.544Z,70.37
2023-04-09T15:49:03.225Z,70.90
2023-04-09T15:52:11.619Z,71.24
2023-04-09T15:55:26.547Z,72.38
2023-04-09T15:58:35.517Z,71.96
2023-04-09T16:01:50.560Z,72.57
2023-04-09T16:05:05.496Z,72.67
2023-04-09T16:08:20.520Z,73.94
2023-04-09T16:11:35.512Z,72.45
2023-04-09T16:14:37.383Z,72.71
2023-04-09T16:17:59.527Z,74.23
2023-04-09T16:21:14.513Z,73.32
2023-04-09T16:24:16.708Z,73.95
2023-04-09T16:27:31.535Z,74.61
2023-04-09T16:30:53.487Z,75.01
2023-04-09T16:33:55.464Z,73.73
2023-04-09T16:37:10.505Z,73.52
2023-04-09T16:40:26.515Z,74.02
2023-04-09T16:43:36.524Z,75.03
2023-04-09T16:46:51.535Z,74.45
2023-04-09T16:50:00.230Z,75.11
2023-04-09T16:53:16.540Z,75.02
2023-04-09T16:56:31.504Z,74.74
2023-04-09T16:59:47.549Z,75.04
2023-04-09T17:02:56.529Z,75.08
2023-04-09T17:06:11.541Z,75.55
2023-04-09T17:09:20.733Z,75.48
2023-04-09T17:12:35.538Z,76.63
2023-04-09T17:15:43.526Z,76.97
2023-04-09T17:18:52.504Z,77.20
2023-04-09T17:22:07.507Z,77.15
2023-04-09T17:25:09.612Z,77.04
2023-04-09T17:28:24.540Z,78.04
2023-04-09T17:31:39.951Z,77.97
2023-04-09T17:34:48.530Z,78.49
2023-04-09T17:37:57.163Z,79.03
2023-04-09T17:41:12.536Z,79.25
2023-04-09T17:44:27.539Z,78.66
2023-04-09T17:47:42.572Z,78.74
2023-04-09T17:50:51.153Z,79.47
2023-04-09T17:54:05.543Z,79.67
2023-04-09T17:57:07.707Z,79.77
2023-04-09T18:00:22.519Z,80.12
2023-04-09T18:03:37.752Z,79.97
2023-04-09T18:06:39.949Z,80.44
2023-04-09T18:09:55.510Z,80.61
2023-04-09T18:13:03.515Z,80.93
2023-04-09T18:16:12.656Z,81.67
2023-04-09T18:19:21.579Z,81.73
2023-04-09T18:22:30.480Z,82.85
2023-04-09T18:25:45.537Z,82.99
2023-04-09T18:28:47.510Z,82.89
2023-04-09T18:32:09.532Z,82.97
2023-04-09T18:35:25.526Z,82.77
2023-04-09T18:38:41.523Z,82.43
2023-04-09T18:41:56.704Z,82.35
2023-04-09T18:45:05.343Z,82.84
2023-04-09T18:48:20.533Z,83.25
2023-04-09T18:51:29.435Z,83.29
2023-04-09T18:54:44.554Z,83.53
2023-04-09T18:57:53.197Z,83.54
2023-04-09T19:01:16.545Z,84.10
2023-04-09T19:04:31.776Z,84.16
2023-04-09T19:07:40.164Z,84.11
2023-04-09T19:10:54.525Z,84.66
2023-04-09T19:13:56.747Z,84.74
2023-04-09T19:17:11.547Z,85.42
2023-04-09T19:20:20.519Z,86.24
2023-04-09T19:23:35.547Z,86.71
2023-04-09T19:26:44.887Z,86.77
2023-04-09T19:30:00.222Z,86.80
2023-04-09T19:33:15.534Z,86.71
2023-04-09T19:36:24.577Z,87.20
2023-04-09T19:39:33.519Z,88.38
2023-04-09T19:42:49.541Z,88.82
2023-04-09T19:45:58.126Z,89.15
2023-04-09T19:49:12.538Z,89.67
2023-04-09T19:52:21.544Z,90.20
2023-04-09T19:55:37.546Z,90.24
2023-04-09T19:58:52.848Z,90.66
2023-04-09T20:02:01.350Z,90.87
2023-04-09T20:05:16.515Z,91.94
2023-04-09T20:08:25.245Z,92.42
2023-04-09T20:11:40.538Z,93.18
2023-04-09T20:14:49.174Z,93.84
2023-04-09T20:18:03.571Z,93.35
2023-04-09T20:21:12.521Z,94.01
2023-04-09T20:24:21.176Z,94.18
2023-04-09T20:27:29.528Z,94.10
2023-04-09T20:30:44.757Z,94.32
2023-04-09T20:33:53.528Z,94.67
2023-04-09T20:37:02.058Z,95.13
2023-04-09T20:40:10.522Z,95.81
2023-04-09T20:43:24.585Z,96.40
2023-04-09T20:46:39.529Z,96.93
2023-04-09T20:49:48.525Z,97.61
2023-04-09T20:53:05.524Z,98.33
2023-04-09T20:56:20.497Z,99.16
2023-04-09T20:59:35.534Z,99.64
2023-04-09T21:02:39.034Z,99.82
2023-04-09T21:05:53.506Z,100.00
2023-04-09T21:09:08.532Z,100.00
2023-04-09T21:12:17.591Z,100.00
2023-04-09T21:15:32.526Z,100.00
2023-04-09T21:18:41.150Z,100.00
2023-04-09T21:21:55.531Z,100.00
2023-04-09T21:25:11.089Z,100.00
2023-04-09T21:28:20.527Z,100.00
2023-04-09T21:31:42.566Z,100.00
2023-04-09T21:34:50.555Z,99.82
2023-04-09T21:37:59.378Z,99.77
2023-04-09T21:41:14.671Z,100.00
2023-04-09T21:44:23.687Z,100.00
2023-04-09T21:47:32.241Z,100.00
2023-04-09T21:50:47.506Z,100.00
2023-04-09T21:53:49.447Z,100.00
2023-04-09T21:57:04.532Z,100.00
2023-04-09T22:00:13.684Z,100.00
2023-04-09T22:03:22.781Z,100.00
2023-04-09T22:06:31.180Z,100.00
2023-04-09T22:09:45.517Z,100.00
2023-04-09T22:12:48.093Z,100.00
2023-04-09T22:16:02.614Z,100.00
2023-04-09T22:19:11.577Z,100.00
2023-04-09T22:22:20.238Z,100.00
2023-04-09T22:25:35.545Z,100.00
2023-04-09T22:28:37.492Z,100.00
2023-04-09T22:31:59.537Z,100.00
2023-04-09T22:35:15.550Z,100.00
2023-04-09T22:38:17.524Z,100.00
2023-04-09T22:41:32.543Z,100.00
2023-04-09T22:44:34.872Z,100.00
2023-04-09T22:47:49.591Z,100.00
2023-04-09T22:50:58.251Z,100.00
2023-04-09T22:54:07.534Z,100.00
2023-04-09T22:57:16.156Z,100.00
2023-04-09T23:00:24.537Z,100.00
2023-04-09T23:03:39.561Z,100.00
2023-04-09T23:06:48.524Z,100.00
2023-04-09T23:10:03.552Z,100.00
2023-04-09T23:13:20.266Z,100.00
2023-04-09T23:16:35.596Z,100.00
2023-04-09T23:19:50.535Z,100.00
2023-04-09T23:22:59.526Z,100.00
2023-04-09T23:26:08.130Z,100.00
2023-04-09T23:29:16.506Z,100.00
2023-04-09T23:32:38.553Z,100.00
2023-04-09T23:35:47.210Z,100.00
2023-04-09T23:39:02.518Z,100.00
2023-04-09T23:42:11.135Z,100.00
2023-04-09T23:45:25.533Z,100.00
2023-04-09T23:48:27.516Z,100.00
2023-04-09T23:51:43.513Z,100.00
2023-04-09T23:54:49.331Z,100.00
2023-04-09T23:58:04.522Z,100.00
